Terminal Aerodrome Forecast
Issued by NWS

Home | Current Version | Previous Version | Text Only | Print | Product List | Glossary On
Versions: 1 2 3 4 5 6 7 8 9 10 11 12
347
FTUS42 KFFC 212320
TAFRYY
TAF
KRYY 212320Z 2200/2224 00000KT P6SM FEW250
     FM221200 00000KT P6SM SCT020
     FM221400 14006KT P6SM BKN012
     FM221800 16008KT P6SM VCSH OVC008
     FM222200 17008KT 5SM -SHRA OVC007=

USA.gov is the U.S. government's official web portal to all federal, state and local government web resources and services.